createdAt,value
2022-11-27T00:00:10.155Z,102643.72
2022-11-27T00:05:16.589Z,102652.53
2022-11-27T00:10:20.367Z,102658.81
2022-11-27T00:15:22.614Z,102660.00
2022-11-27T00:20:29.711Z,102654.56
2022-11-27T00:25:32.098Z,102654.56
2022-11-27T00:30:33.779Z,102641.41
2022-11-27T00:35:35.433Z,102635.00
2022-11-27T00:40:37.159Z,102615.66
2022-11-27T00:45:38.961Z,102636.06
2022-11-27T00:50:42.690Z,102627.13
2022-11-27T00:55:51.996Z,102615.06
2022-11-27T01:00:57.437Z,102609.84
2022-11-27T01:06:06.281Z,102617.28
2022-11-27T01:11:08.170Z,102620.38
2022-11-27T01:16:16.423Z,102619.81
2022-11-27T01:21:20.081Z,102615.06
2022-11-27T01:26:24.603Z,102607.53
2022-11-27T01:31:28.772Z,102600.22
2022-11-27T01:36:31.999Z,102605.00
2022-11-27T01:41:39.783Z,102590.41
2022-11-27T01:46:48.786Z,102590.00
2022-11-27T01:52:15.355Z,102578.97
2022-11-27T01:57:24.104Z,102583.09
2022-11-27T02:02:28.661Z,102582.88
2022-11-27T02:07:36.544Z,102584.13
2022-11-27T02:12:47.076Z,102587.19
2022-11-27T02:18:11.676Z,102576.97
2022-11-27T02:23:40.528Z,102582.72
2022-11-27T02:28:51.032Z,102577.19
2022-11-27T02:33:55.219Z,102567.66
2022-11-27T02:39:06.045Z,102579.31
2022-11-27T02:44:09.310Z,102567.63
2022-11-27T02:49:16.977Z,102581.53
2022-11-27T02:54:27.860Z,102564.22
2022-11-27T02:59:33.937Z,102559.13
2022-11-27T03:04:41.886Z,102561.22
2022-11-27T03:09:48.796Z,102546.47
2022-11-27T03:14:53.015Z,102537.97
2022-11-27T03:19:58.862Z,102539.88
2022-11-27T03:25:01.074Z,102533.72
2022-11-27T03:30:09.864Z,102528.00
2022-11-27T03:35:15.621Z,102530.53
2022-11-27T03:40:18.294Z,102525.34
2022-11-27T03:45:50.281Z,102524.69
2022-11-27T03:51:18.976Z,102525.06
2022-11-27T03:56:41.910Z,102518.19
2022-11-27T04:01:43.799Z,102509.38
2022-11-27T04:06:50.089Z,102508.09
2022-11-27T04:11:51.759Z,102512.25
2022-11-27T04:17:00.299Z,102507.34
2022-11-27T04:22:04.042Z,102506.59
2022-11-27T04:27:05.723Z,102490.03
2022-11-27T04:32:10.233Z,102494.59
2022-11-27T04:37:11.975Z,102472.94
2022-11-27T04:42:16.915Z,102466.50
2022-11-27T04:47:20.887Z,102457.06
2022-11-27T04:52:24.821Z,102446.84
2022-11-27T04:57:28.852Z,102449.81
2022-11-27T05:02:30.638Z,102435.94
2022-11-27T05:07:32.460Z,102425.66
2022-11-27T05:12:34.194Z,102429.00
2022-11-27T05:17:35.883Z,102439.22
2022-11-27T05:22:40.238Z,102433.16
2022-11-27T05:27:48.875Z,102436.88
2022-11-27T05:32:55.302Z,102435.91
2022-11-27T05:37:59.173Z,102425.03
2022-11-27T05:43:07.184Z,102429.38
2022-11-27T05:48:10.947Z,102425.13
2022-11-27T05:53:12.670Z,102421.53
2022-11-27T05:58:18.966Z,102412.00
2022-11-27T06:03:20.673Z,102411.16
2022-11-27T06:08:22.634Z,102409.34
2022-11-27T06:13:24.377Z,102412.75
2022-11-27T06:18:26.024Z,102406.03
2022-11-27T06:23:27.708Z,102400.66
2022-11-27T06:28:29.353Z,102404.25
2022-11-27T06:33:31.178Z,102391.28
2022-11-27T06:38:36.728Z,102393.31
2022-11-27T06:43:41.609Z,102388.94
2022-11-27T06:48:50.928Z,102383.66
2022-11-27T06:53:56.170Z,102386.44
2022-11-27T06:59:02.347Z,102377.59
2022-11-27T07:04:04.610Z,102390.97
2022-11-27T07:09:09.868Z,102398.25
2022-11-27T07:14:11.741Z,102387.94
2022-11-27T07:19:24.700Z,102386.44
2022-11-27T07:24:27.096Z,102376.16
2022-11-27T07:29:31.092Z,102375.19
2022-11-27T07:34:34.852Z,102361.03
2022-11-27T07:40:00.672Z,102355.53
2022-11-27T07:45:00.616Z,102348.16
2022-11-27T07:50:07.352Z,102345.97
2022-11-27T07:55:11.890Z,102355.41
2022-11-27T08:00:14.050Z,102341.88
2022-11-27T08:05:18.100Z,102340.63
2022-11-27T08:10:19.935Z,102340.03
2022-11-27T08:15:26.343Z,102345.56
2022-11-27T08:20:30.550Z,102327.97
2022-11-27T08:25:35.005Z,102317.31
2022-11-27T08:30:37.882Z,102292.09
2022-11-27T08:35:48.470Z,102283.31
2022-11-27T08:41:00.270Z,102258.28
2022-11-27T08:46:06.951Z,102269.84
2022-11-27T08:51:15.712Z,102271.84
2022-11-27T08:56:21.991Z,102268.56
2022-11-27T09:01:29.339Z,102261.25
2022-11-27T09:06:36.375Z,102267.41
2022-11-27T09:11:42.690Z,102290.38
2022-11-27T09:16:48.231Z,102307.13
2022-11-27T09:21:50.566Z,102305.34
2022-11-27T09:26:52.401Z,102291.00
2022-11-27T09:31:56.429Z,102298.75
2022-11-27T09:36:58.245Z,102295.16
2022-11-27T09:42:04.442Z,102299.03
2022-11-27T09:47:18.733Z,102295.22
2022-11-27T09:52:40.890Z,102295.31
2022-11-27T09:57:54.622Z,102290.03
2022-11-27T10:02:58.662Z,102292.09
2022-11-27T10:08:17.085Z,102283.72
2022-11-27T10:13:43.534Z,102281.19
2022-11-27T10:18:54.541Z,102275.16
2022-11-27T10:24:19.887Z,102272.16
2022-11-27T10:29:27.458Z,102261.09
2022-11-27T10:34:38.598Z,102265.00
2022-11-27T10:39:45.243Z,102252.88
2022-11-27T10:44:59.994Z,102248.69
2022-11-27T10:50:16.043Z,102241.75
2022-11-27T10:55:25.647Z,102247.19
2022-11-27T11:00:31.741Z,102243.69
2022-11-27T11:05:56.947Z,102233.47
2022-11-27T11:10:57.546Z,102236.00
2022-11-27T11:16:34.964Z,102217.19
2022-11-27T11:21:42.567Z,102211.63
2022-11-27T11:26:52.854Z,102196.56
2022-11-27T11:31:55.643Z,102195.22
2022-11-27T11:37:05.113Z,102185.34
2022-11-27T11:42:27.690Z,102185.13
2022-11-27T11:47:29.474Z,102171.59
2022-11-27T11:53:02.266Z,102164.09
2022-11-27T11:58:10.167Z,102159.41
2022-11-27T12:03:29.742Z,102153.97
2022-11-27T12:09:13.432Z,102157.22
2022-11-27T12:14:29.746Z,102150.13
2022-11-27T12:19:49.248Z,102142.38
2022-11-27T12:25:03.875Z,102147.56
2022-11-27T12:30:16.800Z,102134.75
2022-11-27T12:35:34.893Z,102126.06
2022-11-27T12:41:04.870Z,102111.94
2022-11-27T12:46:32.460Z,102104.22
2022-11-27T12:52:14.453Z,102104.34
2022-11-27T12:57:34.294Z,102087.78
2022-11-27T13:03:00.283Z,102087.19
2022-11-27T13:08:13.192Z,102081.88
2022-11-27T13:13:20.494Z,102079.22
2022-11-27T13:18:43.948Z,102073.19
2022-11-27T13:23:47.988Z,102074.28
2022-11-27T13:28:53.405Z,102067.03
2022-11-27T13:34:05.007Z,102058.56
2022-11-27T13:39:18.945Z,102051.59
2022-11-27T13:44:25.047Z,102054.47
2022-11-27T13:49:33.169Z,102035.88
2022-11-27T13:54:34.960Z,102026.34
2022-11-27T13:59:39.449Z,102024.06
2022-11-27T14:04:55.867Z,102013.44
2022-11-27T14:10:12.830Z,102001.38
2022-11-27T14:15:20.279Z,101989.91
2022-11-27T14:20:51.824Z,101984.84
2022-11-27T14:26:05.414Z,101980.50
2022-11-27T14:31:40.928Z,101973.50
2022-11-27T14:36:42.869Z,101971.81
2022-11-27T14:41:44.587Z,101954.19
2022-11-27T14:46:51.323Z,101957.81
2022-11-27T14:51:56.090Z,101953.34
2022-11-27T14:57:00.878Z,101944.66
2022-11-27T15:02:14.181Z,101939.47
2022-11-27T15:07:23.225Z,101943.94
2022-11-27T15:12:32.533Z,101939.59
2022-11-27T15:17:37.150Z,101931.63
2022-11-27T15:22:49.595Z,101937.06
2022-11-27T15:27:51.551Z,101924.75
2022-11-27T15:32:56.844Z,101916.78
2022-11-27T15:38:05.320Z,101899.88
2022-11-27T15:43:14.896Z,101883.94
2022-11-27T15:48:24.341Z,101860.19
2022-11-27T15:53:28.579Z,101857.41
2022-11-27T15:58:31.007Z,101865.13
2022-11-27T16:03:35.760Z,101866.97
2022-11-27T16:08:41.070Z,101866.81
2022-11-27T16:13:43.863Z,101859.72
2022-11-27T16:18:47.844Z,101851.59
2022-11-27T16:23:56.445Z,101842.84
2022-11-27T16:29:03.592Z,101843.34
2022-11-27T16:34:06.628Z,101831.28
2022-11-27T16:39:08.554Z,101828.75
2022-11-27T16:44:16.682Z,101833.22
2022-11-27T16:49:19.063Z,101821.06
2022-11-27T16:54:28.503Z,101814.75
2022-11-27T16:59:38.018Z,101817.41
2022-11-27T17:04:45.988Z,101813.09
2022-11-27T17:09:59.851Z,101807.78
2022-11-27T17:15:04.452Z,101810.31
2022-11-27T17:20:09.642Z,101804.03
2022-11-27T17:25:15.458Z,101789.78
2022-11-27T17:30:19.440Z,101791.34
2022-11-27T17:35:27.864Z,101781.69
2022-11-27T17:40:32.808Z,101783.50
2022-11-27T17:45:41.354Z,101771.22
2022-11-27T17:50:45.452Z,101765.91
2022-11-27T17:55:55.568Z,101754.41
2022-11-27T18:00:57.772Z,101746.44
2022-11-27T18:06:06.656Z,101743.78
2022-11-27T18:11:25.011Z,101736.69
2022-11-27T18:16:32.603Z,101739.09
2022-11-27T18:21:40.260Z,101725.44
2022-11-27T18:32:08.797Z,101707.97
2022-11-27T18:37:12.032Z,101694.56
2022-11-27T18:42:17.047Z,101702.66
2022-11-27T18:47:20.037Z,101694.84
2022-11-27T18:52:24.238Z,101684.22
2022-11-27T18:57:26.160Z,101678.03
2022-11-27T19:02:30.483Z,101671.78
2022-11-27T19:07:32.295Z,101672.72
2022-11-27T19:12:36.488Z,101669.13
2022-11-27T19:17:40.287Z,101667.28
2022-11-27T19:22:42.361Z,101663.91
2022-11-27T19:27:49.315Z,101650.66
2022-11-27T19:32:51.168Z,101648.00
2022-11-27T19:37:55.441Z,101646.31
2022-11-27T19:43:00.971Z,101652.47
2022-11-27T19:48:11.639Z,101648.81
2022-11-27T19:53:13.451Z,101636.66
2022-11-27T19:58:20.627Z,101630.50
2022-11-27T20:03:22.660Z,101632.19
2022-11-27T20:08:29.134Z,101621.44
2022-11-27T20:13:31.316Z,101614.44
2022-11-27T20:18:36.283Z,101610.81
2022-11-27T20:23:41.968Z,101598.50
2022-11-27T20:28:46.215Z,101594.03
2022-11-27T20:33:52.022Z,101592.34
2022-11-27T20:38:57.582Z,101587.91
2022-11-27T20:44:04.581Z,101582.56
2022-11-27T20:49:06.438Z,101584.13
2022-11-27T20:54:09.326Z,101584.13
2022-11-27T20:59:12.521Z,101571.69
2022-11-27T21:04:24.058Z,101560.94
2022-11-27T21:09:29.569Z,101553.91
2022-11-27T21:14:33.770Z,101552.25
2022-11-27T21:19:39.954Z,101541.63
2022-11-27T21:24:44.251Z,101533.78
2022-11-27T21:29:46.320Z,101529.47
2022-11-27T21:34:53.855Z,101525.94
2022-11-27T21:39:56.388Z,101514.66
2022-11-27T21:44:59.208Z,101509.34
2022-11-27T21:50:00.974Z,101500.50
2022-11-27T21:55:05.601Z,101489.06
2022-11-27T22:00:13.439Z,101487.22
2022-11-27T22:05:21.629Z,101481.22
2022-11-27T22:10:23.459Z,101475.19
2022-11-27T22:15:27.413Z,101466.53
2022-11-27T22:20:31.458Z,101461.91
2022-11-27T22:25:35.587Z,101454.22
2022-11-27T22:30:39.931Z,101449.91
2022-11-27T22:35:44.134Z,101440.25
2022-11-27T22:40:45.912Z,101429.75
2022-11-27T22:45:50.163Z,101408.69
2022-11-27T22:50:58.996Z,101410.47
2022-11-27T22:56:06.855Z,101400.84
2022-11-27T23:01:20.826Z,101403.38
2022-11-27T23:06:26.315Z,101389.38
2022-11-27T23:11:28.642Z,101395.66
2022-11-27T23:16:33.543Z,101386.03
2022-11-27T23:21:37.590Z,101386.72
2022-11-27T23:26:41.963Z,101382.25
2022-11-27T23:31:43.792Z,101386.56
2022-11-27T23:36:50.359Z,101379.72
2022-11-27T23:41:54.552Z,101366.63
2022-11-27T23:46:58.625Z,101358.78
2022-11-27T23:52:00.570Z,101359.72
2022-11-27T23:57:03.315Z,101365.03
